sensor_id;sensor_type;location;lat;lon;timestamp;temperature;humidity
21108;DHT22;10712;52.944;9.098;2024-03-02T00:00:44;7.10;87.60
21108;DHT22;10712;52.944;9.098;2024-03-02T00:03:15;7.10;87.60
21108;DHT22;10712;52.944;9.098;2024-03-02T00:05:41;7.10;87.60
21108;DHT22;10712;52.944;9.098;2024-03-02T00:08:07;7.10;87.60
21108;DHT22;10712;52.944;9.098;2024-03-02T00:10:37;7.10;87.50
21108;DHT22;10712;52.944;9.098;2024-03-02T00:13:06;7.00;87.50
21108;DHT22;10712;52.944;9.098;2024-03-02T00:15:47;7.00;87.60
21108;DHT22;10712;52.944;9.098;2024-03-02T00:18:33;7.00;87.60
21108;DHT22;10712;52.944;9.098;2024-03-02T00:21:01;6.90;87.60
21108;DHT22;10712;52.944;9.098;2024-03-02T00:23:32;6.90;87.60
21108;DHT22;10712;52.944;9.098;2024-03-02T00:25:59;6.90;87.60
21108;DHT22;10712;52.944;9.098;2024-03-02T00:28:31;6.80;87.60
21108;DHT22;10712;52.944;9.098;2024-03-02T00:31:09;6.80;87.60
21108;DHT22;10712;52.944;9.098;2024-03-02T00:33:44;6.70;87.60
21108;DHT22;10712;52.944;9.098;2024-03-02T00:36:12;6.70;87.60
21108;DHT22;10712;52.944;9.098;2024-03-02T00:38:48;6.60;87.70
21108;DHT22;10712;52.944;9.098;2024-03-02T00:41:22;6.60;87.80
21108;DHT22;10712;52.944;9.098;2024-03-02T00:44:01;6.50;87.90
21108;DHT22;10712;52.944;9.098;2024-03-02T00:46:41;6.50;88.00
21108;DHT22;10712;52.944;9.098;2024-03-02T00:49:23;6.50;87.90
21108;DHT22;10712;52.944;9.098;2024-03-02T00:51:50;6.40;88.00
21108;DHT22;10712;52.944;9.098;2024-03-02T00:54:22;6.40;88.10
21108;DHT22;10712;52.944;9.098;2024-03-02T00:56:52;6.40;88.20
21108;DHT22;10712;52.944;9.098;2024-03-02T00:59:21;6.30;88.20
21108;DHT22;10712;52.944;9.098;2024-03-02T01:01:48;6.30;88.30
21108;DHT22;10712;52.944;9.098;2024-03-02T01:04:15;6.30;88.40
21108;DHT22;10712;52.944;9.098;2024-03-02T01:06:44;6.30;88.50
21108;DHT22;10712;52.944;9.098;2024-03-02T01:09:11;6.30;88.50
21108;DHT22;10712;52.944;9.098;2024-03-02T01:11:37;6.30;88.70
21108;DHT22;10712;52.944;9.098;2024-03-02T01:14:04;6.30;88.70
21108;DHT22;10712;52.944;9.098;2024-03-02T01:16:30;6.30;88.70
21108;DHT22;10712;52.944;9.098;2024-03-02T01:18:55;6.30;88.60
21108;DHT22;10712;52.944;9.098;2024-03-02T01:21:22;6.30;88.70
21108;DHT22;10712;52.944;9.098;2024-03-02T01:23:48;6.30;88.70
21108;DHT22;10712;52.944;9.098;2024-03-02T01:26:14;6.30;88.60
21108;DHT22;10712;52.944;9.098;2024-03-02T01:28:40;6.30;88.60
21108;DHT22;10712;52.944;9.098;2024-03-02T01:31:06;6.30;88.70
21108;DHT22;10712;52.944;9.098;2024-03-02T01:33:31;6.20;88.90
21108;DHT22;10712;52.944;9.098;2024-03-02T01:35:57;6.30;89.00
21108;DHT22;10712;52.944;9.098;2024-03-02T01:38:23;6.30;89.10
21108;DHT22;10712;52.944;9.098;2024-03-02T01:40:49;6.30;89.10
21108;DHT22;10712;52.944;9.098;2024-03-02T01:43:15;6.30;89.20
21108;DHT22;10712;52.944;9.098;2024-03-02T01:45:41;6.40;89.10
21108;DHT22;10712;52.944;9.098;2024-03-02T01:48:07;6.40;89.00
21108;DHT22;10712;52.944;9.098;2024-03-02T01:50:34;6.50;89.00
21108;DHT22;10712;52.944;9.098;2024-03-02T01:53:01;6.50;89.00
21108;DHT22;10712;52.944;9.098;2024-03-02T01:55:28;6.50;88.90
21108;DHT22;10712;52.944;9.098;2024-03-02T01:57:58;6.50;88.90
21108;DHT22;10712;52.944;9.098;2024-03-02T02:00:24;6.50;88.80
21108;DHT22;10712;52.944;9.098;2024-03-02T02:02:51;6.50;88.90
21108;DHT22;10712;52.944;9.098;2024-03-02T02:05:18;6.50;88.80
21108;DHT22;10712;52.944;9.098;2024-03-02T02:07:44;6.50;88.80
21108;DHT22;10712;52.944;9.098;2024-03-02T02:10:10;6.50;88.80
21108;DHT22;10712;52.944;9.098;2024-03-02T02:12:37;6.50;88.80
21108;DHT22;10712;52.944;9.098;2024-03-02T02:15:04;6.50;88.80
21108;DHT22;10712;52.944;9.098;2024-03-02T02:17:46;6.50;88.80
21108;DHT22;10712;52.944;9.098;2024-03-02T02:20:12;6.50;88.80
21108;DHT22;10712;52.944;9.098;2024-03-02T02:22:38;6.50;88.70
21108;DHT22;10712;52.944;9.098;2024-03-02T02:25:03;6.50;88.60
21108;DHT22;10712;52.944;9.098;2024-03-02T02:27:29;6.50;88.60
21108;DHT22;10712;52.944;9.098;2024-03-02T02:29:56;6.50;88.60
21108;DHT22;10712;52.944;9.098;2024-03-02T02:32:21;6.50;88.60
21108;DHT22;10712;52.944;9.098;2024-03-02T02:34:52;6.50;88.60
21108;DHT22;10712;52.944;9.098;2024-03-02T02:37:18;6.50;88.60
21108;DHT22;10712;52.944;9.098;2024-03-02T02:39:44;6.50;88.60
21108;DHT22;10712;52.944;9.098;2024-03-02T02:42:12;6.50;88.60
21108;DHT22;10712;52.944;9.098;2024-03-02T02:44:38;6.50;88.50
21108;DHT22;10712;52.944;9.098;2024-03-02T02:47:03;6.50;88.50
21108;DHT22;10712;52.944;9.098;2024-03-02T02:49:29;6.50;88.50
21108;DHT22;10712;52.944;9.098;2024-03-02T02:51:56;6.50;88.50
21108;DHT22;10712;52.944;9.098;2024-03-02T02:54:22;6.50;88.50
21108;DHT22;10712;52.944;9.098;2024-03-02T02:56:48;6.50;88.40
21108;DHT22;10712;52.944;9.098;2024-03-02T02:59:14;6.40;88.40
21108;DHT22;10712;52.944;9.098;2024-03-02T03:01:40;6.40;88.40
21108;DHT22;10712;52.944;9.098;2024-03-02T03:04:05;6.40;88.50
21108;DHT22;10712;52.944;9.098;2024-03-02T03:06:31;6.30;88.60
21108;DHT22;10712;52.944;9.098;2024-03-02T03:08:57;6.30;88.50
21108;DHT22;10712;52.944;9.098;2024-03-02T03:11:23;6.30;88.60
21108;DHT22;10712;52.944;9.098;2024-03-02T03:13:50;6.30;88.70
21108;DHT22;10712;52.944;9.098;2024-03-02T03:16:16;6.30;88.90
21108;DHT22;10712;52.944;9.098;2024-03-02T03:18:41;6.30;89.00
21108;DHT22;10712;52.944;9.098;2024-03-02T03:21:07;6.30;89.00
21108;DHT22;10712;52.944;9.098;2024-03-02T03:23:33;6.30;89.00
21108;DHT22;10712;52.944;9.098;2024-03-02T03:25:58;6.30;89.00
21108;DHT22;10712;52.944;9.098;2024-03-02T03:28:24;6.30;89.00
21108;DHT22;10712;52.944;9.098;2024-03-02T03:30:50;6.30;88.90
21108;DHT22;10712;52.944;9.098;2024-03-02T03:33:16;6.30;89.00
21108;DHT22;10712;52.944;9.098;2024-03-02T03:35:41;6.30;89.00
21108;DHT22;10712;52.944;9.098;2024-03-02T03:38:07;6.30;88.90
21108;DHT22;10712;52.944;9.098;2024-03-02T03:40:33;6.30;89.00
21108;DHT22;10712;52.944;9.098;2024-03-02T03:42:59;6.30;88.90
21108;DHT22;10712;52.944;9.098;2024-03-02T03:45:25;6.30;88.90
21108;DHT22;10712;52.944;9.098;2024-03-02T03:47:53;6.30;88.90
21108;DHT22;10712;52.944;9.098;2024-03-02T03:50:19;6.30;88.90
21108;DHT22;10712;52.944;9.098;2024-03-02T03:52:45;6.30;88.70
21108;DHT22;10712;52.944;9.098;2024-03-02T03:55:11;6.30;88.70
21108;DHT22;10712;52.944;9.098;2024-03-02T03:57:36;6.30;88.70
21108;DHT22;10712;52.944;9.098;2024-03-02T04:00:03;6.30;88.60
21108;DHT22;10712;52.944;9.098;2024-03-02T04:02:37;6.20;88.60
21108;DHT22;10712;52.944;9.098;2024-03-02T04:05:04;6.20;88.60
21108;DHT22;10712;52.944;9.098;2024-03-02T04:07:35;6.30;88.60
21108;DHT22;10712;52.944;9.098;2024-03-02T04:10:09;6.20;88.70
21108;DHT22;10712;52.944;9.098;2024-03-02T04:12:39;6.30;88.60
21108;DHT22;10712;52.944;9.098;2024-03-02T04:15:05;6.30;88.60
21108;DHT22;10712;52.944;9.098;2024-03-02T04:17:33;6.30;88.60
21108;DHT22;10712;52.944;9.098;2024-03-02T04:19:59;6.30;88.60
21108;DHT22;10712;52.944;9.098;2024-03-02T04:22:26;6.30;88.60
21108;DHT22;10712;52.944;9.098;2024-03-02T04:24:53;6.30;88.50
21108;DHT22;10712;52.944;9.098;2024-03-02T04:27:19;6.30;88.50
21108;DHT22;10712;52.944;9.098;2024-03-02T04:29:45;6.30;88.60
21108;DHT22;10712;52.944;9.098;2024-03-02T04:32:11;6.30;88.60
21108;DHT22;10712;52.944;9.098;2024-03-02T04:34:36;6.30;88.50
21108;DHT22;10712;52.944;9.098;2024-03-02T04:37:02;6.30;88.60
21108;DHT22;10712;52.944;9.098;2024-03-02T04:39:28;6.30;88.60
21108;DHT22;10712;52.944;9.098;2024-03-02T04:41:54;6.30;88.60
21108;DHT22;10712;52.944;9.098;2024-03-02T04:44:20;6.30;88.60
21108;DHT22;10712;52.944;9.098;2024-03-02T04:46:45;6.30;88.50
21108;DHT22;10712;52.944;9.098;2024-03-02T04:49:11;6.30;88.50
21108;DHT22;10712;52.944;9.098;2024-03-02T04:51:37;6.40;88.50
21108;DHT22;10712;52.944;9.098;2024-03-02T04:54:03;6.40;88.40
21108;DHT22;10712;52.944;9.098;2024-03-02T04:56:28;6.40;88.30
21108;DHT22;10712;52.944;9.098;2024-03-02T04:58:57;6.40;88.30
21108;DHT22;10712;52.944;9.098;2024-03-02T05:01:23;6.30;88.30
21108;DHT22;10712;52.944;9.098;2024-03-02T05:03:48;6.30;88.10
21108;DHT22;10712;52.944;9.098;2024-03-02T05:06:14;6.20;88.10
21108;DHT22;10712;52.944;9.098;2024-03-02T05:08:40;6.20;88.20
21108;DHT22;10712;52.944;9.098;2024-03-02T05:11:06;6.10;88.30
21108;DHT22;10712;52.944;9.098;2024-03-02T05:13:50;6.10;88.60
21108;DHT22;10712;52.944;9.098;2024-03-02T05:16:16;6.00;88.70
21108;DHT22;10712;52.944;9.098;2024-03-02T05:18:41;6.00;88.80
21108;DHT22;10712;52.944;9.098;2024-03-02T05:21:07;6.00;88.90
21108;DHT22;10712;52.944;9.098;2024-03-02T05:23:33;6.00;89.00
21108;DHT22;10712;52.944;9.098;2024-03-02T05:25:59;6.00;89.00
21108;DHT22;10712;52.944;9.098;2024-03-02T05:28:25;6.00;89.10
21108;DHT22;10712;52.944;9.098;2024-03-02T05:30:51;6.00;89.20
21108;DHT22;10712;52.944;9.098;2024-03-02T05:33:16;6.00;89.20
21108;DHT22;10712;52.944;9.098;2024-03-02T05:35:44;6.00;89.30
21108;DHT22;10712;52.944;9.098;2024-03-02T05:38:09;6.00;89.20
21108;DHT22;10712;52.944;9.098;2024-03-02T05:40:35;6.00;89.20
21108;DHT22;10712;52.944;9.098;2024-03-02T05:43:01;5.90;89.30
21108;DHT22;10712;52.944;9.098;2024-03-02T05:45:27;5.90;89.20
21108;DHT22;10712;52.944;9.098;2024-03-02T05:47:52;5.90;89.40
21108;DHT22;10712;52.944;9.098;2024-03-02T05:50:18;5.90;89.40
21108;DHT22;10712;52.944;9.098;2024-03-02T05:52:45;5.90;89.50
21108;DHT22;10712;52.944;9.098;2024-03-02T05:55:11;5.80;89.60
21108;DHT22;10712;52.944;9.098;2024-03-02T05:57:37;5.80;89.60
21108;DHT22;10712;52.944;9.098;2024-03-02T06:00:08;5.80;89.60
21108;DHT22;10712;52.944;9.098;2024-03-02T06:02:41;5.80;89.60
21108;DHT22;10712;52.944;9.098;2024-03-02T06:05:07;5.80;89.60
21108;DHT22;10712;52.944;9.098;2024-03-02T06:07:33;5.80;89.70
21108;DHT22;10712;52.944;9.098;2024-03-02T06:09:58;5.70;89.70
21108;DHT22;10712;52.944;9.098;2024-03-02T06:12:24;5.70;89.70
21108;DHT22;10712;52.944;9.098;2024-03-02T06:14:50;5.70;89.70
21108;DHT22;10712;52.944;9.098;2024-03-02T06:17:16;5.70;89.70
21108;DHT22;10712;52.944;9.098;2024-03-02T06:19:41;5.70;89.80
21108;DHT22;10712;52.944;9.098;2024-03-02T06:22:08;5.70;89.80
21108;DHT22;10712;52.944;9.098;2024-03-02T06:24:36;5.60;89.90
21108;DHT22;10712;52.944;9.098;2024-03-02T06:27:03;5.60;89.90
21108;DHT22;10712;52.944;9.098;2024-03-02T06:29:31;5.60;90.00
21108;DHT22;10712;52.944;9.098;2024-03-02T06:31:58;5.70;90.00
21108;DHT22;10712;52.944;9.098;2024-03-02T06:34:23;5.60;90.10
21108;DHT22;10712;52.944;9.098;2024-03-02T06:36:49;5.70;90.20
21108;DHT22;10712;52.944;9.098;2024-03-02T06:39:15;5.70;90.20
21108;DHT22;10712;52.944;9.098;2024-03-02T06:41:41;5.70;90.30
21108;DHT22;10712;52.944;9.098;2024-03-02T06:44:08;5.70;90.30
21108;DHT22;10712;52.944;9.098;2024-03-02T06:46:33;5.70;90.40
21108;DHT22;10712;52.944;9.098;2024-03-02T06:48:59;5.80;90.40
21108;DHT22;10712;52.944;9.098;2024-03-02T06:51:27;5.80;90.40
21108;DHT22;10712;52.944;9.098;2024-03-02T06:53:53;5.90;90.40
21108;DHT22;10712;52.944;9.098;2024-03-02T06:56:19;5.90;90.40
21108;DHT22;10712;52.944;9.098;2024-03-02T06:58:45;5.90;90.30
21108;DHT22;10712;52.944;9.098;2024-03-02T07:01:10;6.00;90.30
21108;DHT22;10712;52.944;9.098;2024-03-02T07:03:36;6.00;90.30
21108;DHT22;10712;52.944;9.098;2024-03-02T07:06:02;6.10;90.30
21108;DHT22;10712;52.944;9.098;2024-03-02T07:08:28;6.10;90.30
21108;DHT22;10712;52.944;9.098;2024-03-02T07:10:54;6.20;90.30
21108;DHT22;10712;52.944;9.098;2024-03-02T07:13:20;6.20;90.30
21108;DHT22;10712;52.944;9.098;2024-03-02T07:15:46;6.20;90.30
21108;DHT22;10712;52.944;9.098;2024-03-02T07:18:32;6.30;90.20
21108;DHT22;10712;52.944;9.098;2024-03-02T07:21:09;6.30;90.30
21108;DHT22;10712;52.944;9.098;2024-03-02T07:23:35;6.40;90.20
21108;DHT22;10712;52.944;9.098;2024-03-02T07:26:01;6.40;90.20
21108;DHT22;10712;52.944;9.098;2024-03-02T07:28:27;6.40;90.30
21108;DHT22;10712;52.944;9.098;2024-03-02T07:31:04;6.50;90.20
21108;DHT22;10712;52.944;9.098;2024-03-02T07:33:30;6.50;90.30
21108;DHT22;10712;52.944;9.098;2024-03-02T07:35:57;6.60;90.30
21108;DHT22;10712;52.944;9.098;2024-03-02T07:38:28;6.60;90.20
21108;DHT22;10712;52.944;9.098;2024-03-02T07:40:54;6.70;90.20
21108;DHT22;10712;52.944;9.098;2024-03-02T07:43:21;6.70;90.20
21108;DHT22;10712;52.944;9.098;2024-03-02T07:45:47;6.80;90.20
21108;DHT22;10712;52.944;9.098;2024-03-02T07:48:14;6.80;90.20
21108;DHT22;10712;52.944;9.098;2024-03-02T07:50:40;6.90;90.30
21108;DHT22;10712;52.944;9.098;2024-03-02T07:53:07;7.00;90.30
21108;DHT22;10712;52.944;9.098;2024-03-02T07:55:33;7.00;90.10
21108;DHT22;10712;52.944;9.098;2024-03-02T07:58:02;7.10;90.10
21108;DHT22;10712;52.944;9.098;2024-03-02T08:00:28;7.20;90.10
21108;DHT22;10712;52.944;9.098;2024-03-02T08:02:55;7.30;90.00
21108;DHT22;10712;52.944;9.098;2024-03-02T08:05:21;7.30;89.90
21108;DHT22;10712;52.944;9.098;2024-03-02T08:07:47;7.40;89.80
21108;DHT22;10712;52.944;9.098;2024-03-02T08:10:14;7.40;89.60
21108;DHT22;10712;52.944;9.098;2024-03-02T08:12:40;7.50;89.40
21108;DHT22;10712;52.944;9.098;2024-03-02T08:15:06;7.60;89.30
21108;DHT22;10712;52.944;9.098;2024-03-02T08:17:32;7.60;89.10
21108;DHT22;10712;52.944;9.098;2024-03-02T08:19:58;7.60;89.00
21108;DHT22;10712;52.944;9.098;2024-03-02T08:22:24;7.70;88.90
21108;DHT22;10712;52.944;9.098;2024-03-02T08:24:54;7.80;88.60
21108;DHT22;10712;52.944;9.098;2024-03-02T08:27:20;7.80;88.40
21108;DHT22;10712;52.944;9.098;2024-03-02T08:29:46;7.80;88.30
21108;DHT22;10712;52.944;9.098;2024-03-02T08:32:11;7.80;88.20
21108;DHT22;10712;52.944;9.098;2024-03-02T08:34:37;7.80;88.20
21108;DHT22;10712;52.944;9.098;2024-03-02T08:37:03;7.90;88.10
21108;DHT22;10712;52.944;9.098;2024-03-02T08:39:29;7.90;88.00
21108;DHT22;10712;52.944;9.098;2024-03-02T08:41:55;7.90;87.90
21108;DHT22;10712;52.944;9.098;2024-03-02T08:44:21;8.00;87.90
21108;DHT22;10712;52.944;9.098;2024-03-02T08:46:47;8.00;87.80
21108;DHT22;10712;52.944;9.098;2024-03-02T08:49:13;8.00;87.70
21108;DHT22;10712;52.944;9.098;2024-03-02T08:51:38;8.10;87.60
21108;DHT22;10712;52.944;9.098;2024-03-02T08:54:04;8.10;87.50
21108;DHT22;10712;52.944;9.098;2024-03-02T08:56:31;8.10;87.40
21108;DHT22;10712;52.944;9.098;2024-03-02T08:58:57;8.10;87.40
21108;DHT22;10712;52.944;9.098;2024-03-02T09:01:23;8.10;87.30
21108;DHT22;10712;52.944;9.098;2024-03-02T09:03:49;8.10;87.30
21108;DHT22;10712;52.944;9.098;2024-03-02T09:06:15;8.10;87.20
21108;DHT22;10712;52.944;9.098;2024-03-02T09:08:45;8.20;87.20
21108;DHT22;10712;52.944;9.098;2024-03-02T09:11:11;8.20;87.30
21108;DHT22;10712;52.944;9.098;2024-03-02T09:13:38;8.20;87.20
21108;DHT22;10712;52.944;9.098;2024-03-02T09:16:04;8.30;87.10
21108;DHT22;10712;52.944;9.098;2024-03-02T09:18:31;8.30;87.10
21108;DHT22;10712;52.944;9.098;2024-03-02T09:20:57;8.30;87.10
21108;DHT22;10712;52.944;9.098;2024-03-02T09:23:22;8.30;87.10
21108;DHT22;10712;52.944;9.098;2024-03-02T09:25:48;8.30;87.10
21108;DHT22;10712;52.944;9.098;2024-03-02T09:28:15;8.40;87.20
21108;DHT22;10712;52.944;9.098;2024-03-02T09:30:41;8.40;87.10
21108;DHT22;10712;52.944;9.098;2024-03-02T09:33:07;8.50;87.10
21108;DHT22;10712;52.944;9.098;2024-03-02T09:35:33;8.50;87.10
21108;DHT22;10712;52.944;9.098;2024-03-02T09:37:58;8.60;86.90
21108;DHT22;10712;52.944;9.098;2024-03-02T09:40:24;8.60;86.90
21108;DHT22;10712;52.944;9.098;2024-03-02T09:42:51;8.70;86.80
21108;DHT22;10712;52.944;9.098;2024-03-02T09:45:25;8.80;86.50
21108;DHT22;10712;52.944;9.098;2024-03-02T09:47:52;8.90;86.40
21108;DHT22;10712;52.944;9.098;2024-03-02T09:50:18;9.00;86.00
21108;DHT22;10712;52.944;9.098;2024-03-02T09:52:44;9.10;85.70
21108;DHT22;10712;52.944;9.098;2024-03-02T09:55:13;9.20;85.50
21108;DHT22;10712;52.944;9.098;2024-03-02T09:57:41;9.30;85.40
21108;DHT22;10712;52.944;9.098;2024-03-02T10:00:10;9.40;84.70
21108;DHT22;10712;52.944;9.098;2024-03-02T10:02:41;9.60;84.50
21108;DHT22;10712;52.944;9.098;2024-03-02T10:05:08;9.70;84.20
21108;DHT22;10712;52.944;9.098;2024-03-02T10:07:34;9.80;83.10
21108;DHT22;10712;52.944;9.098;2024-03-02T10:10:13;10.00;83.00
21108;DHT22;10712;52.944;9.098;2024-03-02T10:12:40;10.10;82.80
21108;DHT22;10712;52.944;9.098;2024-03-02T10:15:06;10.10;82.40
21108;DHT22;10712;52.944;9.098;2024-03-02T10:17:32;10.20;82.10
21108;DHT22;10712;52.944;9.098;2024-03-02T10:19:58;10.30;81.40
21108;DHT22;10712;52.944;9.098;2024-03-02T10:22:24;10.40;81.00
21108;DHT22;10712;52.944;9.098;2024-03-02T10:24:52;10.40;81.00
21108;DHT22;10712;52.944;9.098;2024-03-02T10:27:27;10.40;81.00
21108;DHT22;10712;52.944;9.098;2024-03-02T10:29:54;10.50;79.90
21108;DHT22;10712;52.944;9.098;2024-03-02T10:32:22;10.50;79.90
21108;DHT22;10712;52.944;9.098;2024-03-02T10:34:50;10.60;79.70
21108;DHT22;10712;52.944;9.098;2024-03-02T10:37:16;10.60;79.30
21108;DHT22;10712;52.944;9.098;2024-03-02T10:39:42;10.70;79.00
21108;DHT22;10712;52.944;9.098;2024-03-02T10:42:09;10.70;78.70
21108;DHT22;10712;52.944;9.098;2024-03-02T10:44:35;10.70;78.50
21108;DHT22;10712;52.944;9.098;2024-03-02T10:47:02;10.80;78.20
21108;DHT22;10712;52.944;9.098;2024-03-02T10:49:30;10.80;78.10
21108;DHT22;10712;52.944;9.098;2024-03-02T10:52:01;10.80;77.90
21108;DHT22;10712;52.944;9.098;2024-03-02T10:54:27;10.80;77.50
21108;DHT22;10712;52.944;9.098;2024-03-02T10:56:58;10.80;77.30
21108;DHT22;10712;52.944;9.098;2024-03-02T10:59:32;10.90;76.90
21108;DHT22;10712;52.944;9.098;2024-03-02T11:02:00;10.90;77.10
21108;DHT22;10712;52.944;9.098;2024-03-02T11:04:28;10.90;76.50
21108;DHT22;10712;52.944;9.098;2024-03-02T11:07:06;11.00;76.80
21108;DHT22;10712;52.944;9.098;2024-03-02T11:09:35;11.00;76.70
21108;DHT22;10712;52.944;9.098;2024-03-02T11:12:31;11.10;76.00
21108;DHT22;10712;52.944;9.098;2024-03-02T11:15:10;11.20;76.00
21108;DHT22;10712;52.944;9.098;2024-03-02T11:17:40;11.30;75.30
21108;DHT22;10712;52.944;9.098;2024-03-02T11:20:08;11.30;75.20
21108;DHT22;10712;52.944;9.098;2024-03-02T11:22:36;11.40;75.50
21108;DHT22;10712;52.944;9.098;2024-03-02T11:25:02;11.50;75.70
21108;DHT22;10712;52.944;9.098;2024-03-02T11:33:06;11.70;74.40
21108;DHT22;10712;52.944;9.098;2024-03-02T11:35:35;11.80;73.90
21108;DHT22;10712;52.944;9.098;2024-03-02T11:38:11;11.90;73.30
21108;DHT22;10712;52.944;9.098;2024-03-02T11:40:39;12.00;73.10
21108;DHT22;10712;52.944;9.098;2024-03-02T11:43:06;12.00;72.70
21108;DHT22;10712;52.944;9.098;2024-03-02T11:45:36;12.10;72.40
21108;DHT22;10712;52.944;9.098;2024-03-02T11:48:06;12.20;72.60
21108;DHT22;10712;52.944;9.098;2024-03-02T11:50:47;12.20;72.60
21108;DHT22;10712;52.944;9.098;2024-03-02T11:53:15;12.30;72.30
21108;DHT22;10712;52.944;9.098;2024-03-02T11:55:41;12.40;71.80
21108;DHT22;10712;52.944;9.098;2024-03-02T11:58:12;12.40;71.10
21108;DHT22;10712;52.944;9.098;2024-03-02T12:00:39;12.50;71.20
21108;DHT22;10712;52.944;9.098;2024-03-02T12:03:06;12.60;70.30
21108;DHT22;10712;52.944;9.098;2024-03-02T12:05:34;12.60;70.10
21108;DHT22;10712;52.944;9.098;2024-03-02T12:08:03;12.70;70.00
21108;DHT22;10712;52.944;9.098;2024-03-02T12:10:31;12.70;70.00
21108;DHT22;10712;52.944;9.098;2024-03-02T12:13:01;12.80;70.10
21108;DHT22;10712;52.944;9.098;2024-03-02T12:15:37;12.80;70.30
21108;DHT22;10712;52.944;9.098;2024-03-02T12:18:04;12.90;69.30
21108;DHT22;10712;52.944;9.098;2024-03-02T12:20:33;13.00;69.00
21108;DHT22;10712;52.944;9.098;2024-03-02T12:23:01;13.00;68.60
21108;DHT22;10712;52.944;9.098;2024-03-02T12:25:28;13.10;68.00
21108;DHT22;10712;52.944;9.098;2024-03-02T12:27:57;13.10;68.80
21108;DHT22;10712;52.944;9.098;2024-03-02T12:30:27;13.10;69.20
21108;DHT22;10712;52.944;9.098;2024-03-02T12:32:57;13.20;69.00
21108;DHT22;10712;52.944;9.098;2024-03-02T12:35:24;13.20;68.70
21108;DHT22;10712;52.944;9.098;2024-03-02T12:37:52;13.20;68.80
21108;DHT22;10712;52.944;9.098;2024-03-02T12:40:20;13.30;68.60
21108;DHT22;10712;52.944;9.098;2024-03-02T12:42:49;13.40;67.40
21108;DHT22;10712;52.944;9.098;2024-03-02T12:45:16;13.50;67.30
21108;DHT22;10712;52.944;9.098;2024-03-02T12:47:49;13.50;67.70
21108;DHT22;10712;52.944;9.098;2024-03-02T12:50:16;13.50;67.90
21108;DHT22;10712;52.944;9.098;2024-03-02T12:52:42;13.60;68.60
21108;DHT22;10712;52.944;9.098;2024-03-02T12:55:07;13.60;68.50
21108;DHT22;10712;52.944;9.098;2024-03-02T12:57:34;13.70;67.30
21108;DHT22;10712;52.944;9.098;2024-03-02T13:00:00;13.70;66.90
21108;DHT22;10712;52.944;9.098;2024-03-02T13:02:35;13.80;66.60
21108;DHT22;10712;52.944;9.098;2024-03-02T13:05:02;13.80;66.40
21108;DHT22;10712;52.944;9.098;2024-03-02T13:07:29;13.90;65.80
21108;DHT22;10712;52.944;9.098;2024-03-02T13:09:55;13.90;66.20
21108;DHT22;10712;52.944;9.098;2024-03-02T13:12:23;13.90;66.70
21108;DHT22;10712;52.944;9.098;2024-03-02T13:14:51;13.90;66.30
21108;DHT22;10712;52.944;9.098;2024-03-02T13:17:18;13.90;66.30
21108;DHT22;10712;52.944;9.098;2024-03-02T13:19:56;13.90;66.60
21108;DHT22;10712;52.944;9.098;2024-03-02T13:22:26;13.90;67.10
21108;DHT22;10712;52.944;9.098;2024-03-02T13:24:52;14.00;67.20
21108;DHT22;10712;52.944;9.098;2024-03-02T13:27:22;14.00;66.80
21108;DHT22;10712;52.944;9.098;2024-03-02T13:29:48;14.10;66.40
21108;DHT22;10712;52.944;9.098;2024-03-02T13:32:15;14.10;66.70
21108;DHT22;10712;52.944;9.098;2024-03-02T13:34:43;14.10;67.30
21108;DHT22;10712;52.944;9.098;2024-03-02T13:37:09;14.20;67.30
21108;DHT22;10712;52.944;9.098;2024-03-02T13:39:35;14.30;65.40
21108;DHT22;10712;52.944;9.098;2024-03-02T13:42:09;14.30;65.50
21108;DHT22;10712;52.944;9.098;2024-03-02T13:44:36;14.30;65.50
21108;DHT22;10712;52.944;9.098;2024-03-02T13:47:03;14.30;65.40
21108;DHT22;10712;52.944;9.098;2024-03-02T13:49:30;14.40;65.40
21108;DHT22;10712;52.944;9.098;2024-03-02T13:52:01;14.40;65.10
21108;DHT22;10712;52.944;9.098;2024-03-02T13:54:30;14.40;65.50
21108;DHT22;10712;52.944;9.098;2024-03-02T13:56:57;14.40;66.00
21108;DHT22;10712;52.944;9.098;2024-03-02T13:59:25;14.50;64.50
21108;DHT22;10712;52.944;9.098;2024-03-02T14:01:51;14.50;64.80
21108;DHT22;10712;52.944;9.098;2024-03-02T14:04:17;14.50;64.40
21108;DHT22;10712;52.944;9.098;2024-03-02T14:06:43;14.50;64.70
21108;DHT22;10712;52.944;9.098;2024-03-02T14:09:09;14.50;65.20
21108;DHT22;10712;52.944;9.098;2024-03-02T14:11:35;14.50;64.30
21108;DHT22;10712;52.944;9.098;2024-03-02T14:14:01;14.40;64.70
21108;DHT22;10712;52.944;9.098;2024-03-02T14:16:28;14.40;65.40
21108;DHT22;10712;52.944;9.098;2024-03-02T14:18:54;14.40;65.10
21108;DHT22;10712;52.944;9.098;2024-03-02T14:21:19;14.30;64.80
21108;DHT22;10712;52.944;9.098;2024-03-02T14:23:45;14.30;64.80
21108;DHT22;10712;52.944;9.098;2024-03-02T14:26:11;14.20;65.10
21108;DHT22;10712;52.944;9.098;2024-03-02T14:28:37;14.20;65.40
21108;DHT22;10712;52.944;9.098;2024-03-02T14:31:03;14.20;65.50
21108;DHT22;10712;52.944;9.098;2024-03-02T14:33:29;14.20;65.50
21108;DHT22;10712;52.944;9.098;2024-03-02T14:35:54;14.20;65.90
21108;DHT22;10712;52.944;9.098;2024-03-02T14:38:20;14.20;66.30
21108;DHT22;10712;52.944;9.098;2024-03-02T14:40:46;14.20;66.30
21108;DHT22;10712;52.944;9.098;2024-03-02T14:43:12;14.20;66.20
21108;DHT22;10712;52.944;9.098;2024-03-02T14:45:38;14.10;66.20
21108;DHT22;10712;52.944;9.098;2024-03-02T14:48:04;14.10;66.30
21108;DHT22;10712;52.944;9.098;2024-03-02T14:50:30;14.10;66.50
21108;DHT22;10712;52.944;9.098;2024-03-02T14:52:56;14.00;66.90
21108;DHT22;10712;52.944;9.098;2024-03-02T14:55:23;14.10;66.30
21108;DHT22;10712;52.944;9.098;2024-03-02T14:57:49;14.00;66.60
21108;DHT22;10712;52.944;9.098;2024-03-02T15:00:16;14.00;66.60
21108;DHT22;10712;52.944;9.098;2024-03-02T15:02:42;13.90;67.00
21108;DHT22;10712;52.944;9.098;2024-03-02T15:05:08;13.90;67.10
21108;DHT22;10712;52.944;9.098;2024-03-02T15:07:34;13.90;67.10
21108;DHT22;10712;52.944;9.098;2024-03-02T15:09:59;13.90;67.10
21108;DHT22;10712;52.944;9.098;2024-03-02T15:12:25;13.90;67.20
21108;DHT22;10712;52.944;9.098;2024-03-02T15:14:51;13.90;67.50
21108;DHT22;10712;52.944;9.098;2024-03-02T15:17:17;13.80;67.60
21108;DHT22;10712;52.944;9.098;2024-03-02T15:19:44;13.80;67.40
21108;DHT22;10712;52.944;9.098;2024-03-02T15:22:11;13.80;67.30
21108;DHT22;10712;52.944;9.098;2024-03-02T15:24:37;13.80;66.80
21108;DHT22;10712;52.944;9.098;2024-03-02T15:27:04;13.80;66.30
21108;DHT22;10712;52.944;9.098;2024-03-02T15:29:32;13.80;66.40
21108;DHT22;10712;52.944;9.098;2024-03-02T15:31:58;13.80;66.80
21108;DHT22;10712;52.944;9.098;2024-03-02T15:34:24;13.70;67.00
21108;DHT22;10712;52.944;9.098;2024-03-02T15:36:50;13.80;66.80
21108;DHT22;10712;52.944;9.098;2024-03-02T15:39:16;13.70;67.00
21108;DHT22;10712;52.944;9.098;2024-03-02T15:41:44;13.70;67.10
21108;DHT22;10712;52.944;9.098;2024-03-02T15:44:10;13.60;67.40
21108;DHT22;10712;52.944;9.098;2024-03-02T15:46:36;13.60;67.60